sensor_id;sensor_type;location;lat;lon;timestamp;P1;durP1;ratioP1;P2;durP2;ratioP2
21837;SDS011;11081;45.946;6.140;2022-09-27T00:01:49;4.00;;;1.27;;
21837;SDS011;11081;45.946;6.140;2022-09-27T00:04:17;2.70;;;1.50;;
21837;SDS011;11081;45.946;6.140;2022-09-27T00:06:45;3.00;;;1.63;;
21837;SDS011;11081;45.946;6.140;2022-09-27T00:09:13;3.42;;;1.50;;
21837;SDS011;11081;45.946;6.140;2022-09-27T00:11:41;2.17;;;1.77;;
21837;SDS011;11081;45.946;6.140;2022-09-27T00:14:10;3.45;;;1.60;;
21837;SDS011;11081;45.946;6.140;2022-09-27T00:16:40;4.55;;;1.90;;
21837;SDS011;11081;45.946;6.140;2022-09-27T00:19:11;2.63;;;1.50;;
21837;SDS011;11081;45.946;6.140;2022-09-27T00:21:41;3.78;;;1.13;;
21837;SDS011;11081;45.946;6.140;2022-09-27T00:24:10;3.90;;;1.90;;
21837;SDS011;11081;45.946;6.140;2022-09-27T00:26:39;3.05;;;1.95;;
21837;SDS011;11081;45.946;6.140;2022-09-27T00:29:08;3.78;;;1.60;;
21837;SDS011;11081;45.946;6.140;2022-09-27T00:31:36;2.83;;;1.75;;
21837;SDS011;11081;45.946;6.140;2022-09-27T00:34:05;3.92;;;1.58;;
21837;SDS011;11081;45.946;6.140;2022-09-27T00:36:35;5.50;;;1.60;;
21837;SDS011;11081;45.946;6.140;2022-09-27T00:39:03;1.63;;;1.00;;
21837;SDS011;11081;45.946;6.140;2022-09-27T00:41:32;1.55;;;1.08;;
21837;SDS011;11081;45.946;6.140;2022-09-27T00:44:02;4.07;;;1.30;;
21837;SDS011;11081;45.946;6.140;2022-09-27T00:46:53;2.58;;;1.63;;
21837;SDS011;11081;45.946;6.140;2022-09-27T00:49:27;3.00;;;1.67;;
21837;SDS011;11081;45.946;6.140;2022-09-27T00:52:02;4.70;;;2.15;;
21837;SDS011;11081;45.946;6.140;2022-09-27T00:54:32;4.53;;;1.75;;
21837;SDS011;11081;45.946;6.140;2022-09-27T00:57:03;1.25;;;1.02;;
21837;SDS011;11081;45.946;6.140;2022-09-27T00:59:33;1.90;;;1.23;;
21837;SDS011;11081;45.946;6.140;2022-09-27T01:02:04;2.50;;;1.48;;
21837;SDS011;11081;45.946;6.140;2022-09-27T01:04:34;1.90;;;1.40;;
21837;SDS011;11081;45.946;6.140;2022-09-27T01:07:06;4.55;;;1.65;;
21837;SDS011;11081;45.946;6.140;2022-09-27T01:09:34;2.13;;;1.40;;
21837;SDS011;11081;45.946;6.140;2022-09-27T01:12:04;2.67;;;1.55;;
21837;SDS011;11081;45.946;6.140;2022-09-27T01:14:40;2.63;;;1.42;;
21837;SDS011;11081;45.946;6.140;2022-09-27T01:17:25;1.58;;;1.30;;
21837;SDS011;11081;45.946;6.140;2022-09-27T01:23:13;3.72;;;1.65;;
21837;SDS011;11081;45.946;6.140;2022-09-27T01:26:03;2.45;;;1.17;;
21837;SDS011;11081;45.946;6.140;2022-09-27T01:28:45;3.58;;;1.35;;
21837;SDS011;11081;45.946;6.140;2022-09-27T01:31:25;3.25;;;1.40;;
21837;SDS011;11081;45.946;6.140;2022-09-27T01:34:01;2.42;;;1.27;;
21837;SDS011;11081;45.946;6.140;2022-09-27T01:36:36;2.45;;;1.15;;
21837;SDS011;11081;45.946;6.140;2022-09-27T01:39:15;2.33;;;1.17;;
21837;SDS011;11081;45.946;6.140;2022-09-27T01:42:20;2.53;;;1.50;;
21837;SDS011;11081;45.946;6.140;2022-09-27T01:44:53;4.80;;;1.77;;
21837;SDS011;11081;45.946;6.140;2022-09-27T01:47:36;1.65;;;1.13;;
21837;SDS011;11081;45.946;6.140;2022-09-27T01:50:32;1.20;;;1.10;;
21837;SDS011;11081;45.946;6.140;2022-09-27T01:53:06;1.98;;;1.30;;
21837;SDS011;11081;45.946;6.140;2022-09-27T01:55:53;0.90;;;0.73;;
21837;SDS011;11081;45.946;6.140;2022-09-27T01:58:43;1.90;;;1.10;;
21837;SDS011;11081;45.946;6.140;2022-09-27T02:01:17;1.45;;;1.02;;
21837;SDS011;11081;45.946;6.140;2022-09-27T02:03:51;2.00;;;1.23;;
21837;SDS011;11081;45.946;6.140;2022-09-27T02:06:43;2.13;;;1.10;;
21837;SDS011;11081;45.946;6.140;2022-09-27T02:09:21;1.50;;;1.20;;
21837;SDS011;11081;45.946;6.140;2022-09-27T02:12:14;1.83;;;1.00;;
21837;SDS011;11081;45.946;6.140;2022-09-27T02:14:48;1.65;;;1.13;;
21837;SDS011;11081;45.946;6.140;2022-09-27T02:17:21;2.20;;;1.20;;
21837;SDS011;11081;45.946;6.140;2022-09-27T02:20:02;2.08;;;1.00;;
21837;SDS011;11081;45.946;6.140;2022-09-27T02:22:44;1.02;;;0.90;;
21837;SDS011;11081;45.946;6.140;2022-09-27T02:25:17;2.42;;;0.90;;
21837;SDS011;11081;45.946;6.140;2022-09-27T02:27:53;1.10;;;0.90;;
21837;SDS011;11081;45.946;6.140;2022-09-27T02:30:30;1.40;;;1.02;;
21837;SDS011;11081;45.946;6.140;2022-09-27T02:33:11;1.98;;;1.17;;
21837;SDS011;11081;45.946;6.140;2022-09-27T02:35:40;1.83;;;1.00;;
21837;SDS011;11081;45.946;6.140;2022-09-27T02:38:09;2.28;;;1.45;;
21837;SDS011;11081;45.946;6.140;2022-09-27T02:40:41;2.20;;;1.30;;
21837;SDS011;11081;45.946;6.140;2022-09-27T02:43:10;2.78;;;1.70;;
21837;SDS011;11081;45.946;6.140;2022-09-27T02:45:43;4.63;;;2.20;;
21837;SDS011;11081;45.946;6.140;2022-09-27T02:48:21;4.00;;;1.98;;
21837;SDS011;11081;45.946;6.140;2022-09-27T02:51:05;2.20;;;1.60;;
21837;SDS011;11081;45.946;6.140;2022-09-27T02:53:47;1.60;;;1.33;;
21837;SDS011;11081;45.946;6.140;2022-09-27T02:56:48;3.28;;;1.90;;
21837;SDS011;11081;45.946;6.140;2022-09-27T02:59:44;4.53;;;2.40;;
21837;SDS011;11081;45.946;6.140;2022-09-27T03:02:40;3.47;;;2.40;;
21837;SDS011;11081;45.946;6.140;2022-09-27T03:05:36;2.80;;;1.85;;
21837;SDS011;11081;45.946;6.140;2022-09-27T03:08:10;2.72;;;1.90;;
21837;SDS011;11081;45.946;6.140;2022-09-27T03:10:39;3.90;;;2.28;;
21837;SDS011;11081;45.946;6.140;2022-09-27T03:13:07;2.97;;;1.85;;
21837;SDS011;11081;45.946;6.140;2022-09-27T03:15:36;2.53;;;1.95;;
21837;SDS011;11081;45.946;6.140;2022-09-27T03:18:04;2.88;;;1.83;;
21837;SDS011;11081;45.946;6.140;2022-09-27T03:20:51;4.57;;;1.90;;
21837;SDS011;11081;45.946;6.140;2022-09-27T03:23:23;5.57;;;1.90;;
21837;SDS011;11081;45.946;6.140;2022-09-27T03:25:52;3.22;;;1.63;;
21837;SDS011;11081;45.946;6.140;2022-09-27T03:28:20;3.85;;;1.77;;
21837;SDS011;11081;45.946;6.140;2022-09-27T03:30:50;3.33;;;1.70;;
21837;SDS011;11081;45.946;6.140;2022-09-27T03:33:42;4.05;;;1.92;;
21837;SDS011;11081;45.946;6.140;2022-09-27T03:36:10;2.88;;;1.45;;
21837;SDS011;11081;45.946;6.140;2022-09-27T03:38:39;3.28;;;1.70;;
21837;SDS011;11081;45.946;6.140;2022-09-27T03:41:13;1.80;;;1.40;;
21837;SDS011;11081;45.946;6.140;2022-09-27T03:43:41;2.92;;;1.73;;
21837;SDS011;11081;45.946;6.140;2022-09-27T03:46:09;5.78;;;1.90;;
21837;SDS011;11081;45.946;6.140;2022-09-27T03:48:38;3.45;;;1.92;;
21837;SDS011;11081;45.946;6.140;2022-09-27T03:51:08;6.25;;;1.88;;
21837;SDS011;11081;45.946;6.140;2022-09-27T03:53:37;5.85;;;2.50;;
21837;SDS011;11081;45.946;6.140;2022-09-27T03:56:07;8.48;;;2.33;;
21837;SDS011;11081;45.946;6.140;2022-09-27T03:58:36;4.25;;;2.17;;
21837;SDS011;11081;45.946;6.140;2022-09-27T04:01:05;4.60;;;1.55;;
21837;SDS011;11081;45.946;6.140;2022-09-27T04:03:34;2.28;;;1.13;;
21837;SDS011;11081;45.946;6.140;2022-09-27T04:06:22;6.05;;;1.30;;
21837;SDS011;11081;45.946;6.140;2022-09-27T04:08:52;3.25;;;1.33;;
21837;SDS011;11081;45.946;6.140;2022-09-27T04:11:25;3.53;;;1.52;;
21837;SDS011;11081;45.946;6.140;2022-09-27T04:13:53;3.45;;;1.30;;
21837;SDS011;11081;45.946;6.140;2022-09-27T04:16:24;5.82;;;1.30;;
21837;SDS011;11081;45.946;6.140;2022-09-27T04:19:22;3.13;;;1.60;;
21837;SDS011;11081;45.946;6.140;2022-09-27T04:22:04;6.68;;;1.40;;
21837;SDS011;11081;45.946;6.140;2022-09-27T04:24:33;4.82;;;1.67;;
21837;SDS011;11081;45.946;6.140;2022-09-27T04:27:21;4.72;;;1.17;;
21837;SDS011;11081;45.946;6.140;2022-09-27T04:29:50;4.40;;;1.20;;
21837;SDS011;11081;45.946;6.140;2022-09-27T04:32:39;2.83;;;1.00;;
21837;SDS011;11081;45.946;6.140;2022-09-27T04:35:26;3.75;;;1.30;;
21837;SDS011;11081;45.946;6.140;2022-09-27T04:38:12;2.42;;;1.00;;
21837;SDS011;11081;45.946;6.140;2022-09-27T04:40:40;7.03;;;1.42;;
21837;SDS011;11081;45.946;6.140;2022-09-27T04:43:10;5.63;;;1.30;;
21837;SDS011;11081;45.946;6.140;2022-09-27T04:45:38;4.60;;;1.17;;
21837;SDS011;11081;45.946;6.140;2022-09-27T04:48:06;2.92;;;1.08;;
21837;SDS011;11081;45.946;6.140;2022-09-27T04:50:34;4.45;;;1.13;;
21837;SDS011;11081;45.946;6.140;2022-09-27T04:53:03;3.05;;;1.45;;
21837;SDS011;11081;45.946;6.140;2022-09-27T04:55:31;3.95;;;1.17;;
21837;SDS011;11081;45.946;6.140;2022-09-27T04:57:59;3.20;;;1.40;;
21837;SDS011;11081;45.946;6.140;2022-09-27T05:00:30;4.30;;;1.25;;
21837;SDS011;11081;45.946;6.140;2022-09-27T05:03:14;3.75;;;1.30;;
21837;SDS011;11081;45.946;6.140;2022-09-27T05:05:55;2.95;;;1.60;;
21837;SDS011;11081;45.946;6.140;2022-09-27T05:08:23;3.35;;;1.45;;
21837;SDS011;11081;45.946;6.140;2022-09-27T05:11:20;4.53;;;1.48;;
21837;SDS011;11081;45.946;6.140;2022-09-27T05:14:07;5.97;;;1.20;;
21837;SDS011;11081;45.946;6.140;2022-09-27T05:16:46;3.10;;;1.50;;
21837;SDS011;11081;45.946;6.140;2022-09-27T05:19:41;3.80;;;1.42;;
21837;SDS011;11081;45.946;6.140;2022-09-27T05:22:18;5.53;;;1.70;;
21837;SDS011;11081;45.946;6.140;2022-09-27T05:24:46;3.75;;;1.50;;
21837;SDS011;11081;45.946;6.140;2022-09-27T05:27:15;2.78;;;1.20;;
21837;SDS011;11081;45.946;6.140;2022-09-27T05:29:44;3.22;;;1.63;;
21837;SDS011;11081;45.946;6.140;2022-09-27T05:32:37;2.40;;;1.17;;
21837;SDS011;11081;45.946;6.140;2022-09-27T05:35:25;3.45;;;1.65;;
21837;SDS011;11081;45.946;6.140;2022-09-27T05:37:56;4.18;;;2.28;;
21837;SDS011;11081;45.946;6.140;2022-09-27T05:40:28;5.57;;;2.47;;
21837;SDS011;11081;45.946;6.140;2022-09-27T05:43:12;3.95;;;1.67;;
21837;SDS011;11081;45.946;6.140;2022-09-27T05:45:41;5.03;;;2.00;;
21837;SDS011;11081;45.946;6.140;2022-09-27T05:48:13;4.75;;;2.30;;
21837;SDS011;11081;45.946;6.140;2022-09-27T05:50:51;8.32;;;2.28;;
21837;SDS011;11081;45.946;6.140;2022-09-27T05:53:19;5.43;;;2.47;;
21837;SDS011;11081;45.946;6.140;2022-09-27T05:55:47;6.10;;;2.60;;
21837;SDS011;11081;45.946;6.140;2022-09-27T05:58:19;8.70;;;2.40;;
21837;SDS011;11081;45.946;6.140;2022-09-27T06:00:54;7.43;;;2.22;;
21837;SDS011;11081;45.946;6.140;2022-09-27T06:03:48;7.30;;;2.45;;
21837;SDS011;11081;45.946;6.140;2022-09-27T06:06:18;4.57;;;2.33;;
21837;SDS011;11081;45.946;6.140;2022-09-27T06:08:53;6.13;;;2.75;;
21837;SDS011;11081;45.946;6.140;2022-09-27T06:11:23;5.75;;;2.00;;
21837;SDS011;11081;45.946;6.140;2022-09-27T06:13:53;6.30;;;2.75;;
21837;SDS011;11081;45.946;6.140;2022-09-27T06:16:23;10.82;;;2.58;;
21837;SDS011;11081;45.946;6.140;2022-09-27T06:18:53;9.70;;;3.03;;
21837;SDS011;11081;45.946;6.140;2022-09-27T06:21:22;7.05;;;2.63;;
21837;SDS011;11081;45.946;6.140;2022-09-27T06:23:54;8.35;;;2.85;;
21837;SDS011;11081;45.946;6.140;2022-09-27T06:26:28;10.18;;;3.42;;
21837;SDS011;11081;45.946;6.140;2022-09-27T06:29:16;14.05;;;3.28;;
21837;SDS011;11081;45.946;6.140;2022-09-27T06:31:51;6.40;;;2.67;;
21837;SDS011;11081;45.946;6.140;2022-09-27T06:34:47;11.38;;;3.03;;
21837;SDS011;11081;45.946;6.140;2022-09-27T06:37:16;7.95;;;2.80;;
21837;SDS011;11081;45.946;6.140;2022-09-27T06:39:44;9.88;;;3.90;;
21837;SDS011;11081;45.946;6.140;2022-09-27T06:42:37;8.18;;;3.17;;
21837;SDS011;11081;45.946;6.140;2022-09-27T06:45:41;8.25;;;3.25;;
21837;SDS011;11081;45.946;6.140;2022-09-27T06:48:40;10.18;;;3.47;;
21837;SDS011;11081;45.946;6.140;2022-09-27T06:51:14;9.82;;;3.38;;
21837;SDS011;11081;45.946;6.140;2022-09-27T06:53:42;8.73;;;3.75;;
21837;SDS011;11081;45.946;6.140;2022-09-27T06:56:11;5.55;;;3.00;;
21837;SDS011;11081;45.946;6.140;2022-09-27T06:58:45;9.65;;;3.33;;
21837;SDS011;11081;45.946;6.140;2022-09-27T07:01:43;9.65;;;3.85;;
21837;SDS011;11081;45.946;6.140;2022-09-27T07:04:30;14.05;;;3.75;;
21837;SDS011;11081;45.946;6.140;2022-09-27T07:07:07;11.32;;;3.13;;
21837;SDS011;11081;45.946;6.140;2022-09-27T07:09:38;7.20;;;2.95;;
21837;SDS011;11081;45.946;6.140;2022-09-27T07:12:06;8.20;;;2.90;;
21837;SDS011;11081;45.946;6.140;2022-09-27T07:14:34;7.95;;;2.85;;
21837;SDS011;11081;45.946;6.140;2022-09-27T07:17:03;13.65;;;3.47;;
21837;SDS011;11081;45.946;6.140;2022-09-27T07:19:36;13.07;;;3.08;;
21837;SDS011;11081;45.946;6.140;2022-09-27T07:22:07;7.45;;;2.85;;
21837;SDS011;11081;45.946;6.140;2022-09-27T07:24:36;8.90;;;2.60;;
21837;SDS011;11081;45.946;6.140;2022-09-27T07:27:04;8.63;;;3.08;;
21837;SDS011;11081;45.946;6.140;2022-09-27T07:29:33;10.48;;;3.83;;
21837;SDS011;11081;45.946;6.140;2022-09-27T07:32:01;11.90;;;3.67;;
21837;SDS011;11081;45.946;6.140;2022-09-27T07:34:29;15.98;;;3.92;;
21837;SDS011;11081;45.946;6.140;2022-09-27T07:37:00;11.30;;;3.50;;
21837;SDS011;11081;45.946;6.140;2022-09-27T07:39:36;8.68;;;2.90;;
21837;SDS011;11081;45.946;6.140;2022-09-27T07:42:05;7.53;;;3.08;;
21837;SDS011;11081;45.946;6.140;2022-09-27T07:44:37;7.47;;;1.95;;
21837;SDS011;11081;45.946;6.140;2022-09-27T07:47:21;3.17;;;1.20;;
21837;SDS011;11081;45.946;6.140;2022-09-27T07:50:25;3.47;;;1.20;;
21837;SDS011;11081;45.946;6.140;2022-09-27T07:52:57;8.05;;;1.33;;
21837;SDS011;11081;45.946;6.140;2022-09-27T07:55:41;2.80;;;1.30;;
21837;SDS011;11081;45.946;6.140;2022-09-27T07:58:12;6.88;;;2.08;;
21837;SDS011;11081;45.946;6.140;2022-09-27T08:00:40;3.47;;;1.45;;
21837;SDS011;11081;45.946;6.140;2022-09-27T08:03:10;7.63;;;1.75;;
21837;SDS011;11081;45.946;6.140;2022-09-27T08:05:41;9.98;;;3.55;;
21837;SDS011;11081;45.946;6.140;2022-09-27T08:08:09;12.93;;;4.32;;
21837;SDS011;11081;45.946;6.140;2022-09-27T08:10:37;2.40;;;1.08;;
21837;SDS011;11081;45.946;6.140;2022-09-27T08:13:15;4.47;;;1.30;;
21837;SDS011;11081;45.946;6.140;2022-09-27T08:15:47;5.45;;;1.35;;
21837;SDS011;11081;45.946;6.140;2022-09-27T08:18:18;1.70;;;0.70;;
21837;SDS011;11081;45.946;6.140;2022-09-27T08:20:54;1.55;;;0.88;;
21837;SDS011;11081;45.946;6.140;2022-09-27T08:23:26;3.47;;;0.80;;
21837;SDS011;11081;45.946;6.140;2022-09-27T08:26:13;3.42;;;0.70;;
21837;SDS011;11081;45.946;6.140;2022-09-27T08:29:05;4.75;;;1.10;;
21837;SDS011;11081;45.946;6.140;2022-09-27T08:31:38;6.75;;;1.10;;
21837;SDS011;11081;45.946;6.140;2022-09-27T08:34:06;6.53;;;1.45;;
21837;SDS011;11081;45.946;6.140;2022-09-27T08:36:34;4.20;;;1.30;;
21837;SDS011;11081;45.946;6.140;2022-09-27T08:39:03;5.28;;;1.15;;
21837;SDS011;11081;45.946;6.140;2022-09-27T08:41:41;3.90;;;1.25;;
21837;SDS011;11081;45.946;6.140;2022-09-27T08:44:19;8.80;;;2.28;;
21837;SDS011;11081;45.946;6.140;2022-09-27T08:47:00;5.40;;;1.80;;
21837;SDS011;11081;45.946;6.140;2022-09-27T08:49:36;6.53;;;1.77;;
21837;SDS011;11081;45.946;6.140;2022-09-27T08:52:11;7.03;;;1.50;;
21837;SDS011;11081;45.946;6.140;2022-09-27T08:54:42;6.85;;;1.50;;
21837;SDS011;11081;45.946;6.140;2022-09-27T08:57:13;5.38;;;1.85;;
21837;SDS011;11081;45.946;6.140;2022-09-27T08:59:46;9.52;;;1.90;;
21837;SDS011;11081;45.946;6.140;2022-09-27T09:02:21;4.22;;;1.30;;
21837;SDS011;11081;45.946;6.140;2022-09-27T09:04:52;4.20;;;1.60;;
21837;SDS011;11081;45.946;6.140;2022-09-27T09:07:41;2.97;;;0.90;;
21837;SDS011;11081;45.946;6.140;2022-09-27T09:10:25;2.80;;;1.17;;
21837;SDS011;11081;45.946;6.140;2022-09-27T09:13:21;3.08;;;0.80;;
21837;SDS011;11081;45.946;6.140;2022-09-27T09:16:08;4.07;;;0.98;;
21837;SDS011;11081;45.946;6.140;2022-09-27T09:18:53;3.35;;;1.20;;
21837;SDS011;11081;45.946;6.140;2022-09-27T09:21:59;4.18;;;1.23;;
21837;SDS011;11081;45.946;6.140;2022-09-27T09:24:42;6.00;;;1.77;;
21837;SDS011;11081;45.946;6.140;2022-09-27T09:27:20;4.45;;;1.05;;
21837;SDS011;11081;45.946;6.140;2022-09-27T09:30:00;2.47;;;1.48;;
21837;SDS011;11081;45.946;6.140;2022-09-27T09:32:46;6.85;;;1.30;;
21837;SDS011;11081;45.946;6.140;2022-09-27T09:35:33;4.70;;;1.45;;
21837;SDS011;11081;45.946;6.140;2022-09-27T09:38:07;3.65;;;1.45;;
21837;SDS011;11081;45.946;6.140;2022-09-27T09:40:42;7.13;;;1.50;;
21837;SDS011;11081;45.946;6.140;2022-09-27T09:43:16;5.80;;;2.03;;
21837;SDS011;11081;45.946;6.140;2022-09-27T09:45:50;4.25;;;1.70;;
21837;SDS011;11081;45.946;6.140;2022-09-27T09:48:26;7.07;;;1.92;;
21837;SDS011;11081;45.946;6.140;2022-09-27T09:51:00;7.55;;;1.58;;
21837;SDS011;11081;45.946;6.140;2022-09-27T09:53:35;8.73;;;2.67;;
21837;SDS011;11081;45.946;6.140;2022-09-27T09:56:12;5.53;;;1.50;;
21837;SDS011;11081;45.946;6.140;2022-09-27T09:58:47;4.63;;;1.30;;
21837;SDS011;11081;45.946;6.140;2022-09-27T10:01:25;2.17;;;1.02;;
21837;SDS011;11081;45.946;6.140;2022-09-27T10:03:57;2.88;;;1.60;;
21837;SDS011;11081;45.946;6.140;2022-09-27T10:06:26;4.50;;;1.50;;
21837;SDS011;11081;45.946;6.140;2022-09-27T10:08:58;3.63;;;1.10;;
21837;SDS011;11081;45.946;6.140;2022-09-27T10:11:38;6.28;;;1.50;;
21837;SDS011;11081;45.946;6.140;2022-09-27T10:14:39;2.53;;;1.02;;
21837;SDS011;11081;45.946;6.140;2022-09-27T10:17:12;2.70;;;0.75;;
21837;SDS011;11081;45.946;6.140;2022-09-27T10:19:46;1.85;;;0.80;;
21837;SDS011;11081;45.946;6.140;2022-09-27T10:22:16;4.80;;;1.20;;
21837;SDS011;11081;45.946;6.140;2022-09-27T10:24:55;4.43;;;1.10;;
21837;SDS011;11081;45.946;6.140;2022-09-27T10:27:48;6.32;;;0.90;;
21837;SDS011;11081;45.946;6.140;2022-09-27T10:30:25;5.50;;;1.52;;
21837;SDS011;11081;45.946;6.140;2022-09-27T10:32:55;3.80;;;1.20;;
21837;SDS011;11081;45.946;6.140;2022-09-27T10:35:42;4.43;;;1.23;;
21837;SDS011;11081;45.946;6.140;2022-09-27T10:38:21;3.80;;;1.30;;
21837;SDS011;11081;45.946;6.140;2022-09-27T10:40:58;3.20;;;1.17;;
21837;SDS011;11081;45.946;6.140;2022-09-27T10:43:44;2.35;;;0.85;;
21837;SDS011;11081;45.946;6.140;2022-09-27T10:46:23;1.20;;;0.70;;
21837;SDS011;11081;45.946;6.140;2022-09-27T10:49:08;2.85;;;1.10;;
21837;SDS011;11081;45.946;6.140;2022-09-27T10:51:41;3.35;;;1.08;;
21837;SDS011;11081;45.946;6.140;2022-09-27T10:54:18;1.58;;;0.80;;
21837;SDS011;11081;45.946;6.140;2022-09-27T10:56:58;7.55;;;1.48;;
21837;SDS011;11081;45.946;6.140;2022-09-27T10:59:31;2.22;;;0.90;;
21837;SDS011;11081;45.946;6.140;2022-09-27T11:02:02;1.25;;;0.77;;
21837;SDS011;11081;45.946;6.140;2022-09-27T11:04:40;5.70;;;1.10;;
21837;SDS011;11081;45.946;6.140;2022-09-27T11:07:14;3.83;;;1.33;;
21837;SDS011;11081;45.946;6.140;2022-09-27T11:09:53;4.63;;;1.33;;
21837;SDS011;11081;45.946;6.140;2022-09-27T11:12:30;6.13;;;1.48;;
21837;SDS011;11081;45.946;6.140;2022-09-27T11:15:02;5.38;;;1.35;;
21837;SDS011;11081;45.946;6.140;2022-09-27T11:17:38;5.45;;;1.50;;
21837;SDS011;11081;45.946;6.140;2022-09-27T11:20:18;6.05;;;1.45;;
21837;SDS011;11081;45.946;6.140;2022-09-27T11:26:13;2.75;;;1.00;;
21837;SDS011;11081;45.946;6.140;2022-09-27T11:28:55;1.92;;;0.90;;
21837;SDS011;11081;45.946;6.140;2022-09-27T11:32:04;4.35;;;1.30;;
21837;SDS011;11081;45.946;6.140;2022-09-27T11:37:47;7.05;;;1.42;;
21837;SDS011;11081;45.946;6.140;2022-09-27T11:40:29;3.35;;;1.10;;
21837;SDS011;11081;45.946;6.140;2022-09-27T11:43:08;3.10;;;1.00;;
21837;SDS011;11081;45.946;6.140;2022-09-27T11:45:52;5.03;;;2.80;;
21837;SDS011;11081;45.946;6.140;2022-09-27T11:48:52;2.67;;;1.05;;
21837;SDS011;11081;45.946;6.140;2022-09-27T11:51:38;2.65;;;1.17;;
21837;SDS011;11081;45.946;6.140;2022-09-27T11:54:24;2.05;;;0.82;;
21837;SDS011;11081;45.946;6.140;2022-09-27T11:57:05;2.70;;;0.73;;
21837;SDS011;11081;45.946;6.140;2022-09-27T11:59:52;2.13;;;0.68;;
21837;SDS011;11081;45.946;6.140;2022-09-27T12:03:08;3.63;;;0.90;;
21837;SDS011;11081;45.946;6.140;2022-09-27T12:06:03;3.28;;;1.25;;
21837;SDS011;11081;45.946;6.140;2022-09-27T12:08:43;3.35;;;1.10;;
21837;SDS011;11081;45.946;6.140;2022-09-27T12:11:24;3.45;;;1.23;;
21837;SDS011;11081;45.946;6.140;2022-09-27T12:13:58;6.43;;;1.17;;
21837;SDS011;11081;45.946;6.140;2022-09-27T12:16:30;4.63;;;1.35;;
21837;SDS011;11081;45.946;6.140;2022-09-27T12:18:59;2.95;;;1.10;;
21837;SDS011;11081;45.946;6.140;2022-09-27T12:21:48;3.80;;;1.10;;
21837;SDS011;11081;45.946;6.140;2022-09-27T12:24:18;6.93;;;1.27;;
21837;SDS011;11081;45.946;6.140;2022-09-27T12:27:12;2.45;;;1.00;;
21837;SDS011;11081;45.946;6.140;2022-09-27T12:29:44;3.40;;;1.00;;
21837;SDS011;11081;45.946;6.140;2022-09-27T12:32:16;4.15;;;0.85;;
21837;SDS011;11081;45.946;6.140;2022-09-27T12:34:50;3.00;;;0.90;;
21837;SDS011;11081;45.946;6.140;2022-09-27T12:37:23;3.65;;;0.80;;
21837;SDS011;11081;45.946;6.140;2022-09-27T12:39:56;3.60;;;0.70;;
21837;SDS011;11081;45.946;6.140;2022-09-27T12:42:36;3.08;;;0.73;;
21837;SDS011;11081;45.946;6.140;2022-09-27T12:45:21;3.85;;;0.82;;
21837;SDS011;11081;45.946;6.140;2022-09-27T12:48:02;5.03;;;1.02;;
21837;SDS011;11081;45.946;6.140;2022-09-27T12:50:35;9.70;;;1.20;;
21837;SDS011;11081;45.946;6.140;2022-09-27T12:53:11;4.10;;;0.90;;
21837;SDS011;11081;45.946;6.140;2022-09-27T12:55:58;3.75;;;0.93;;
21837;SDS011;11081;45.946;6.140;2022-09-27T13:01:58;8.73;;;1.55;;
21837;SDS011;11081;45.946;6.140;2022-09-27T13:04:55;6.38;;;1.48;;
21837;SDS011;11081;45.946;6.140;2022-09-27T13:07:46;5.38;;;1.15;;
21837;SDS011;11081;45.946;6.140;2022-09-27T13:10:33;3.45;;;1.30;;
21837;SDS011;11081;45.946;6.140;2022-09-27T13:13:20;3.97;;;1.33;;
21837;SDS011;11081;45.946;6.140;2022-09-27T13:15:54;5.65;;;1.30;;
21837;SDS011;11081;45.946;6.140;2022-09-27T13:18:30;6.45;;;1.17;;
21837;SDS011;11081;45.946;6.140;2022-09-27T13:24:47;3.50;;;1.00;;
21837;SDS011;11081;45.946;6.140;2022-09-27T13:27:40;3.65;;;1.13;;
21837;SDS011;11081;45.946;6.140;2022-09-27T13:36:28;3.80;;;1.30;;
21837;SDS011;11081;45.946;6.140;2022-09-27T13:39:05;4.00;;;1.00;;
21837;SDS011;11081;45.946;6.140;2022-09-27T13:42:05;7.30;;;1.40;;
21837;SDS011;11081;45.946;6.140;2022-09-27T13:44:42;4.47;;;1.05;;
21837;SDS011;11081;45.946;6.140;2022-09-27T13:47:22;6.20;;;1.40;;
21837;SDS011;11081;45.946;6.140;2022-09-27T13:50:03;6.20;;;1.33;;
21837;SDS011;11081;45.946;6.140;2022-09-27T13:52:56;5.80;;;1.40;;
21837;SDS011;11081;45.946;6.140;2022-09-27T13:55:42;4.13;;;1.45;;
21837;SDS011;11081;45.946;6.140;2022-09-27T14:01:44;7.75;;;1.70;;
21837;SDS011;11081;45.946;6.140;2022-09-27T14:04:20;5.00;;;1.40;;
21837;SDS011;11081;45.946;6.140;2022-09-27T14:06:53;5.95;;;1.42;;
21837;SDS011;11081;45.946;6.140;2022-09-27T14:09:25;3.88;;;1.10;;
21837;SDS011;11081;45.946;6.140;2022-09-27T14:12:04;2.85;;;1.40;;
21837;SDS011;11081;45.946;6.140;2022-09-27T14:14:40;5.72;;;1.08;;
21837;SDS011;11081;45.946;6.140;2022-09-27T14:17:09;8.60;;;1.63;;
21837;SDS011;11081;45.946;6.140;2022-09-27T14:19:40;5.18;;;0.80;;
21837;SDS011;11081;45.946;6.140;2022-09-27T14:22:13;4.28;;;0.90;;
21837;SDS011;11081;45.946;6.140;2022-09-27T14:25:01;6.85;;;1.10;;
21837;SDS011;11081;45.946;6.140;2022-09-27T14:27:45;4.75;;;0.65;;
21837;SDS011;11081;45.946;6.140;2022-09-27T14:30:23;6.90;;;1.08;;
21837;SDS011;11081;45.946;6.140;2022-09-27T14:33:27;4.88;;;1.33;;
21837;SDS011;11081;45.946;6.140;2022-09-27T14:36:02;3.97;;;1.10;;
21837;SDS011;11081;45.946;6.140;2022-09-27T14:38:55;6.65;;;1.20;;
21837;SDS011;11081;45.946;6.140;2022-09-27T14:41:34;2.72;;;0.88;;
21837;SDS011;11081;45.946;6.140;2022-09-27T14:44:02;3.33;;;1.25;;
21837;SDS011;11081;45.946;6.140;2022-09-27T14:46:30;5.45;;;1.83;;
21837;SDS011;11081;45.946;6.140;2022-09-27T14:49:08;4.97;;;1.98;;
21837;SDS011;11081;45.946;6.140;2022-09-27T14:51:39;4.03;;;1.40;;
21837;SDS011;11081;45.946;6.140;2022-09-27T14:54:17;8.60;;;1.48;;
21837;SDS011;11081;45.946;6.140;2022-09-27T14:56:47;5.55;;;1.30;;
21837;SDS011;11081;45.946;6.140;2022-09-27T14:59:21;3.47;;;1.38;;
21837;SDS011;11081;45.946;6.140;2022-09-27T15:01:56;5.57;;;1.52;;
21837;SDS011;11081;45.946;6.140;2022-09-27T15:04:27;8.00;;;1.70;;
21837;SDS011;11081;45.946;6.140;2022-09-27T15:06:59;5.25;;;1.45;;
21837;SDS011;11081;45.946;6.140;2022-09-27T15:09:29;6.53;;;1.98;;
21837;SDS011;11081;45.946;6.140;2022-09-27T15:11:59;7.32;;;2.63;;
21837;SDS011;11081;45.946;6.140;2022-09-27T15:14:30;4.20;;;1.73;;
21837;SDS011;11081;45.946;6.140;2022-09-27T15:16:59;3.38;;;1.73;;
21837;SDS011;11081;45.946;6.140;2022-09-27T15:19:31;3.20;;;1.40;;
21837;SDS011;11081;45.946;6.140;2022-09-27T15:24:50;4.88;;;1.95;;
21837;SDS011;11081;45.946;6.140;2022-09-27T15:27:18;5.18;;;2.03;;
21837;SDS011;11081;45.946;6.140;2022-09-27T15:29:49;5.78;;;1.73;;
21837;SDS011;11081;45.946;6.140;2022-09-27T15:32:19;7.85;;;2.40;;
21837;SDS011;11081;45.946;6.140;2022-09-27T15:34:49;3.15;;;1.33;;
21837;SDS011;11081;45.946;6.140;2022-09-27T15:37:25;9.38;;;1.40;;
21837;SDS011;11081;45.946;6.140;2022-09-27T15:39:56;5.70;;;1.55;;
21837;SDS011;11081;45.946;6.140;2022-09-27T15:42:56;6.10;;;2.90;;
21837;SDS011;11081;45.946;6.140;2022-09-27T15:45:28;4.90;;;2.20;;
21837;SDS011;11081;45.946;6.140;2022-09-27T15:47:57;2.95;;;1.52;;
21837;SDS011;11081;45.946;6.140;2022-09-27T15:50:34;2.72;;;1.02;;
21837;SDS011;11081;45.946;6.140;2022-09-27T15:53:06;6.07;;;1.27;;
21837;SDS011;11081;45.946;6.140;2022-09-27T15:55:40;4.13;;;1.05;;
21837;SDS011;11081;45.946;6.140;2022-09-27T15:58:12;5.93;;;1.77;;
21837;SDS011;11081;45.946;6.140;2022-09-27T16:00:51;8.40;;;3.35;;
21837;SDS011;11081;45.946;6.140;2022-09-27T16:03:21;8.73;;;3.65;;
21837;SDS011;11081;45.946;6.140;2022-09-27T16:05:49;6.88;;;2.60;;
21837;SDS011;11081;45.946;6.140;2022-09-27T16:08:18;3.55;;;1.40;;
21837;SDS011;11081;45.946;6.140;2022-09-27T16:10:49;5.30;;;1.52;;
21837;SDS011;11081;45.946;6.140;2022-09-27T16:13:18;7.85;;;1.63;;
21837;SDS011;11081;45.946;6.140;2022-09-27T16:15:47;3.30;;;1.42;;